Time;durP1;ratioP1;P1;durP2;ratioP2;P2;SDS_P1;SDS_P2;PMS_P1;PMS_P2;Temp;Humidity;BMP_temperature;BMP_pressure;BME280_temperature;BME280_humidity;BME280_pressure;Samples;Min_cycle;Max_cycle;Signal;HPM_P1;HPM_P2
2023/10/24 00:00:56;;;;;;;9.70;6.78;;;10.00;99.90;;;;;;5004071;28;20041;-77
2023/10/24 00:03:22;;;;;;;6.57;5.32;;;10.00;99.90;;;;;;5026412;28;20367;-77
2023/10/24 00:05:48;;;;;;;3.38;3.17;;;10.00;99.90;;;;;;5029499;28;20095;-78
2023/10/24 00:08:14;;;;;;;5.85;4.68;;;10.00;99.90;;;;;;4995603;28;20544;-77
2023/10/24 00:10:40;;;;;;;7.15;5.47;;;10.00;99.90;;;;;;5002252;28;20143;-77
2023/10/24 00:13:06;;;;;;;3.80;3.50;;;9.90;99.90;;;;;;4994279;28;20457;-77
2023/10/24 00:15:31;;;;;;;5.38;4.88;;;10.00;99.90;;;;;;4984859;28;20092;-77
2023/10/24 00:17:57;;;;;;;5.15;4.70;;;10.00;99.90;;;;;;5025855;28;20152;-77
2023/10/24 00:20:22;;;;;;;5.43;5.00;;;10.00;99.90;;;;;;5005792;28;20076;-77
2023/10/24 00:22:48;;;;;;;5.60;5.05;;;10.00;99.90;;;;;;5010109;28;20045;-77
2023/10/24 00:25:14;;;;;;;6.10;3.97;;;10.00;99.90;;;;;;5027617;28;20609;-77
2023/10/24 00:27:39;;;;;;;4.20;3.75;;;10.00;99.90;;;;;;5028553;28;20099;-77
2023/10/24 00:30:06;;;;;;;6.57;4.70;;;10.00;99.90;;;;;;5016913;28;20052;-78
2023/10/24 00:32:31;;;;;;;2.40;2.25;;;10.00;99.90;;;;;;5000799;28;20073;-77
2023/10/24 00:34:57;;;;;;;6.00;3.70;;;10.00;99.90;;;;;;5013240;28;20081;-77
2023/10/24 00:37:23;;;;;;;4.03;3.65;;;10.00;99.90;;;;;;5029630;28;20049;-78
2023/10/24 00:39:49;;;;;;;6.10;4.90;;;10.00;99.90;;;;;;5028428;28;20041;-77
2023/10/24 00:42:15;;;;;;;4.55;4.15;;;10.00;99.90;;;;;;5029194;28;20502;-77
2023/10/24 00:44:40;;;;;;;4.90;4.43;;;9.90;99.90;;;;;;5001047;28;20092;-78
2023/10/24 00:47:07;;;;;;;14.13;5.40;;;9.90;99.90;;;;;;5010930;28;20045;-78
2023/10/24 00:49:33;;;;;;;3.90;3.35;;;10.00;99.90;;;;;;5027992;28;20037;-78
2023/10/24 00:51:59;;;;;;;4.53;2.83;;;10.00;99.90;;;;;;5027765;28;20057;-78
2023/10/24 00:54:27;;;;;;;5.30;4.60;;;9.90;99.90;;;;;;5026646;28;20041;-78
2023/10/24 00:56:53;;;;;;;2.30;2.08;;;9.90;99.90;;;;;;5028524;28;20128;-79
2023/10/24 00:59:23;;;;;;;4.70;3.95;;;10.00;99.90;;;;;;5010553;28;20052;-78
2023/10/24 01:01:50;;;;;;;2.30;1.98;;;9.90;99.90;;;;;;5026347;28;20443;-78
2023/10/24 01:04:18;;;;;;;10.43;2.80;;;9.90;99.90;;;;;;5011139;28;20053;-77
2023/10/24 01:06:44;;;;;;;5.72;3.38;;;10.00;99.90;;;;;;5028304;28;20068;-78
2023/10/24 01:09:10;;;;;;;3.03;2.80;;;10.00;99.90;;;;;;5018936;28;20084;-78
2023/10/24 01:11:37;;;;;;;4.40;3.05;;;10.00;99.90;;;;;;4990812;28;20049;-78
2023/10/24 01:14:03;;;;;;;2.75;2.33;;;10.00;99.90;;;;;;5027641;28;20560;-78
2023/10/24 01:16:32;;;;;;;5.88;3.67;;;10.00;99.90;;;;;;4994410;28;20037;-78
2023/10/24 01:18:57;;;;;;;6.20;5.53;;;10.00;99.90;;;;;;5013127;28;20038;-78
2023/10/24 01:21:23;;;;;;;6.20;4.57;;;10.00;99.90;;;;;;5006125;28;20041;-78
2023/10/24 01:23:49;;;;;;;7.05;5.30;;;10.00;99.90;;;;;;5023228;28;20388;-78
2023/10/24 01:26:17;;;;;;;4.88;3.72;;;10.10;99.90;;;;;;5011110;28;20049;-78
2023/10/24 01:28:43;;;;;;;4.68;2.78;;;10.10;99.90;;;;;;5012393;28;20076;-78
2023/10/24 01:31:09;;;;;;;3.67;3.15;;;10.10;99.90;;;;;;5024006;28;20038;-78
2023/10/24 01:33:34;;;;;;;4.15;3.75;;;10.10;99.90;;;;;;5007650;28;20041;-78
2023/10/24 01:36:01;;;;;;;1.80;1.73;;;10.10;99.90;;;;;;4994655;28;20084;-78
2023/10/24 01:38:26;;;;;;;5.63;4.28;;;10.10;99.90;;;;;;5003376;28;20084;-78
2023/10/24 01:40:52;;;;;;;3.42;3.13;;;10.20;99.90;;;;;;5005370;28;20498;-78
2023/10/24 01:43:18;;;;;;;4.65;3.92;;;10.10;99.90;;;;;;4998554;28;20050;-78
2023/10/24 01:45:43;;;;;;;5.40;3.42;;;10.20;99.90;;;;;;5009201;28;20037;-78
2023/10/24 01:48:10;;;;;;;6.07;4.95;;;10.10;99.90;;;;;;5026821;28;20037;-78
2023/10/24 01:50:36;;;;;;;6.32;5.15;;;10.10;99.90;;;;;;4992685;28;20052;-78
2023/10/24 01:53:01;;;;;;;4.03;3.50;;;10.20;99.90;;;;;;5007034;28;20752;-78
2023/10/24 01:55:27;;;;;;;5.82;4.15;;;10.20;99.90;;;;;;4995426;28;20044;-79
2023/10/24 01:57:52;;;;;;;3.95;2.63;;;10.30;99.90;;;;;;4992392;28;20069;-79
2023/10/24 02:00:20;;;;;;;2.03;1.73;;;10.20;99.90;;;;;;4992740;28;20104;-79
2023/10/24 02:02:45;;;;;;;2.78;2.53;;;10.30;99.90;;;;;;4980686;28;20080;-79
2023/10/24 02:05:12;;;;;;;3.55;2.50;;;10.30;99.90;;;;;;5025151;28;20045;-79
2023/10/24 02:07:38;;;;;;;4.93;4.05;;;10.30;99.90;;;;;;5024666;28;20103;-79
2023/10/24 02:10:04;;;;;;;4.47;3.35;;;10.30;99.90;;;;;;5026222;28;20081;-79
2023/10/24 02:12:30;;;;;;;1.90;1.80;;;10.30;99.90;;;;;;4996869;28;20046;-79
2023/10/24 02:14:56;;;;;;;5.75;2.80;;;10.30;99.90;;;;;;4988863;28;20049;-79
2023/10/24 02:17:21;;;;;;;2.80;2.60;;;10.40;99.90;;;;;;5010040;28;20119;-79
2023/10/24 02:19:47;;;;;;;4.50;2.35;;;10.40;99.90;;;;;;5011111;28;20041;-79
2023/10/24 02:22:13;;;;;;;2.97;2.78;;;10.30;99.90;;;;;;5026278;28;20502;-79
2023/10/24 02:24:39;;;;;;;3.00;1.95;;;10.40;99.90;;;;;;5006170;28;20045;-79
2023/10/24 02:27:05;;;;;;;3.17;2.38;;;10.40;99.90;;;;;;5026600;28;20030;-79
2023/10/24 02:29:33;;;;;;;1.33;1.23;;;10.40;99.90;;;;;;5020146;28;20053;-79
2023/10/24 02:32:02;;;;;;;1.85;1.80;;;10.40;99.90;;;;;;5021143;28;20124;-79
2023/10/24 02:34:28;;;;;;;3.03;2.83;;;10.40;99.90;;;;;;4993792;28;20053;-79
2023/10/24 02:36:54;;;;;;;2.30;2.10;;;10.40;99.90;;;;;;5004395;28;20041;-79
2023/10/24 02:39:20;;;;;;;1.77;1.67;;;10.40;99.90;;;;;;4994810;28;20041;-79
2023/10/24 02:41:46;;;;;;;2.17;2.08;;;10.50;99.90;;;;;;5010108;28;20055;-79
2023/10/24 02:44:12;;;;;;;2.13;1.98;;;10.50;99.90;;;;;;5008644;28;20139;-80
2023/10/24 02:46:38;;;;;;;0.82;0.80;;;10.50;99.90;;;;;;4993909;28;20117;-79
2023/10/24 02:49:03;;;;;;;2.97;1.42;;;10.50;99.90;;;;;;5013133;28;20124;-79
2023/10/24 02:51:29;;;;;;;2.95;1.90;;;10.50;99.90;;;;;;5018106;28;20509;-79
2023/10/24 02:53:55;;;;;;;2.13;1.98;;;10.50;99.90;;;;;;5002005;28;20498;-79
2023/10/24 02:56:20;;;;;;;1.55;1.45;;;10.50;99.90;;;;;;5017439;28;20491;-79
2023/10/24 02:58:46;;;;;;;5.10;2.25;;;10.50;99.90;;;;;;5011182;28;20037;-79
2023/10/24 03:01:11;;;;;;;3.55;3.25;;;10.50;99.90;;;;;;5025716;28;20037;-79
2023/10/24 03:03:37;;;;;;;2.10;1.90;;;10.60;99.90;;;;;;5025376;28;20053;-80
2023/10/24 03:06:13;;;;;;;1.52;1.42;;;10.50;99.90;;;;;;5008380;28;20054;-79
2023/10/24 03:08:39;;;;;;;1.75;1.50;;;10.50;99.90;;;;;;5007670;28;20041;-80
2023/10/24 03:11:05;;;;;;;0.77;0.77;;;10.50;99.90;;;;;;5005242;28;20109;-79
2023/10/24 03:13:30;;;;;;;0.90;0.90;;;10.60;99.90;;;;;;4990236;28;20384;-80
2023/10/24 03:16:04;;;;;;;2.70;1.38;;;10.60;99.90;;;;;;5006416;28;20041;-79
2023/10/24 03:18:31;;;;;;;1.95;1.85;;;10.60;99.90;;;;;;5004125;28;20041;-79
2023/10/24 03:20:58;;;;;;;1.67;1.13;;;10.60;99.90;;;;;;5014665;28;20116;-79
2023/10/24 03:23:24;;;;;;;3.17;2.05;;;10.60;99.90;;;;;;5009048;28;20061;-79
2023/10/24 03:25:50;;;;;;;2.25;2.15;;;10.60;99.90;;;;;;5021886;28;20398;-80
2023/10/24 03:28:16;;;;;;;1.42;1.33;;;10.70;99.90;;;;;;5007427;28;20072;-79
2023/10/24 03:30:41;;;;;;;1.75;1.55;;;10.60;99.90;;;;;;5025289;28;20100;-79
2023/10/24 03:33:07;;;;;;;0.88;0.70;;;10.70;99.90;;;;;;5000571;28;20422;-79
2023/10/24 03:35:33;;;;;;;2.40;2.20;;;10.60;99.90;;;;;;5025155;28;20053;-79
2023/10/24 03:37:58;;;;;;;2.88;2.67;;;10.60;99.90;;;;;;5025733;28;20100;-80
2023/10/24 03:40:26;;;;;;;2.28;2.08;;;10.70;99.90;;;;;;4995982;28;20052;-80
2023/10/24 03:42:53;;;;;;;1.58;1.17;;;10.70;99.90;;;;;;5018416;28;20061;-79
2023/10/24 03:45:19;;;;;;;3.65;2.00;;;10.70;99.90;;;;;;5012910;28;20698;-80
2023/10/24 03:47:44;;;;;;;1.35;1.25;;;10.70;99.90;;;;;;5004650;28;20052;-79
2023/10/24 03:50:10;;;;;;;1.88;1.77;;;10.70;99.90;;;;;;4995695;28;20045;-79
2023/10/24 03:52:35;;;;;;;2.50;2.30;;;10.70;99.90;;;;;;5013478;28;20129;-80
2023/10/24 03:55:01;;;;;;;0.95;0.95;;;10.70;99.90;;;;;;5008979;28;20092;-80
2023/10/24 03:57:28;;;;;;;0.95;0.93;;;10.70;99.90;;;;;;5016142;28;20834;-80
2023/10/24 03:59:53;;;;;;;1.55;0.75;;;10.70;99.90;;;;;;5021196;28;20091;-80
2023/10/24 04:02:19;;;;;;;1.13;1.13;;;10.70;99.90;;;;;;5008452;28;20049;-80
2023/10/24 04:04:45;;;;;;;7.05;1.80;;;10.70;99.90;;;;;;5024568;28;20050;-80
2023/10/24 04:07:10;;;;;;;1.88;1.73;;;10.70;99.90;;;;;;5003836;28;20040;-80
2023/10/24 04:09:36;;;;;;;3.00;2.03;;;10.80;99.90;;;;;;5000809;28;20408;-80
2023/10/24 04:12:02;;;;;;;1.42;1.33;;;10.80;99.90;;;;;;5007911;28;20049;-80
2023/10/24 04:14:28;;;;;;;0.77;0.77;;;10.80;99.90;;;;;;5010710;28;20124;-80
2023/10/24 04:16:53;;;;;;;1.15;1.13;;;10.80;99.90;;;;;;5014809;28;20053;-80
2023/10/24 04:19:19;;;;;;;2.38;1.35;;;10.80;99.90;;;;;;5004705;28;20072;-80
2023/10/24 04:21:45;;;;;;;2.15;1.20;;;10.80;99.90;;;;;;5014059;28;20473;-80
2023/10/24 04:24:11;;;;;;;0.65;0.65;;;10.80;99.90;;;;;;4998989;28;20050;-80
2023/10/24 04:26:36;;;;;;;0.75;0.75;;;10.80;99.90;;;;;;5008531;28;20087;-80
2023/10/24 04:29:02;;;;;;;1.88;1.77;;;10.80;99.90;;;;;;4991956;28;20447;-80
2023/10/24 04:31:28;;;;;;;1.65;1.55;;;10.90;99.90;;;;;;4991898;28;20431;-80
2023/10/24 04:33:53;;;;;;;2.15;1.30;;;10.90;99.90;;;;;;5019054;28;20060;-80
2023/10/24 04:36:19;;;;;;;2.33;2.15;;;11.00;99.90;;;;;;5001878;28;20041;-80
2023/10/24 04:38:45;;;;;;;3.65;1.58;;;10.90;99.90;;;;;;5016752;28;20077;-79
2023/10/24 04:41:10;;;;;;;1.23;1.23;;;10.90;99.90;;;;;;5013905;28;20057;-80
2023/10/24 04:43:36;;;;;;;0.85;0.85;;;10.90;99.90;;;;;;5028404;28;20077;-80
2023/10/24 04:46:02;;;;;;;2.22;2.05;;;11.00;99.90;;;;;;5027473;28;20795;-80
2023/10/24 04:48:28;;;;;;;1.17;1.08;;;11.00;99.90;;;;;;5014545;28;20861;-79
2023/10/24 04:50:54;;;;;;;0.65;0.65;;;11.00;99.90;;;;;;5011433;28;20057;-81
2023/10/24 04:53:19;;;;;;;1.63;1.30;;;11.00;99.90;;;;;;5011004;28;20179;-80
2023/10/24 04:55:45;;;;;;;1.48;1.42;;;11.00;99.90;;;;;;4993018;28;20130;-80
2023/10/24 04:58:11;;;;;;;1.80;1.67;;;11.00;99.90;;;;;;5009800;28;20056;-80
2023/10/24 05:00:38;;;;;;;1.42;1.33;;;11.10;99.90;;;;;;5027822;28;20053;-80
2023/10/24 05:03:03;;;;;;;1.33;1.20;;;11.00;99.90;;;;;;5015326;28;20570;-80
2023/10/24 05:05:29;;;;;;;1.30;1.20;;;11.00;99.90;;;;;;5010991;28;20102;-80
2023/10/24 05:07:55;;;;;;;0.60;0.60;;;11.10;99.90;;;;;;5027915;28;20127;-80
2023/10/24 05:10:20;;;;;;;2.08;0.90;;;11.10;99.90;;;;;;4993520;28;20062;-80
2023/10/24 05:12:46;;;;;;;2.05;1.85;;;11.10;99.90;;;;;;4999412;28;20053;-80
2023/10/24 05:15:13;;;;;;;0.68;0.68;;;11.10;99.90;;;;;;5003096;28;20176;-80
2023/10/24 05:17:38;;;;;;;0.95;0.95;;;11.10;99.90;;;;;;5010206;28;20646;-80
2023/10/24 05:20:07;;;;;;;1.05;1.05;;;11.10;99.90;;;;;;5012889;28;20076;-79
2023/10/24 05:22:34;;;;;;;0.68;0.68;;;11.00;99.90;;;;;;5020503;28;20058;-80
2023/10/24 05:24:59;;;;;;;1.42;1.33;;;11.00;99.90;;;;;;5010565;28;20125;-80
2023/10/24 05:27:26;;;;;;;0.43;0.43;;;11.10;99.90;;;;;;5026208;28;20125;-80
2023/10/24 05:29:52;;;;;;;0.77;0.77;;;11.10;99.90;;;;;;4994893;28;20534;-80
2023/10/24 05:32:18;;;;;;;0.60;0.60;;;11.00;99.90;;;;;;5009557;28;20041;-80
2023/10/24 05:34:44;;;;;;;1.10;1.02;;;11.00;99.90;;;;;;4994641;28;20034;-80
2023/10/24 05:37:10;;;;;;;0.68;0.68;;;10.90;99.90;;;;;;4984031;28;20080;-80
2023/10/24 05:39:35;;;;;;;0.55;0.55;;;10.90;99.90;;;;;;5008718;28;20069;-79
2023/10/24 05:42:01;;;;;;;0.50;0.50;;;10.90;99.90;;;;;;5011422;28;20089;-80
2023/10/24 05:44:27;;;;;;;0.98;0.98;;;10.90;99.90;;;;;;4993127;28;20600;-79
2023/10/24 05:46:53;;;;;;;0.30;0.30;;;10.90;99.90;;;;;;5006011;28;20470;-79
2023/10/24 05:49:19;;;;;;;0.70;0.70;;;10.90;99.90;;;;;;4989777;28;20061;-79
2023/10/24 05:51:45;;;;;;;1.40;0.50;;;10.80;99.90;;;;;;5026368;28;20045;-80
2023/10/24 05:54:11;;;;;;;0.32;0.32;;;10.80;99.90;;;;;;5002579;28;20525;-80
2023/10/24 05:56:36;;;;;;;0.55;0.55;;;10.70;99.90;;;;;;5021333;28;20795;-80
2023/10/24 05:59:02;;;;;;;0.60;0.55;;;10.70;99.90;;;;;;5027935;28;20053;-80
2023/10/24 06:01:28;;;;;;;0.32;0.32;;;10.70;99.90;;;;;;5023603;28;20045;-80
2023/10/24 06:03:54;;;;;;;0.73;0.73;;;10.70;99.90;;;;;;5006001;28;20048;-79
2023/10/24 06:06:20;;;;;;;2.17;2.00;;;10.70;99.90;;;;;;5011581;28;20048;-79
2023/10/24 06:08:46;;;;;;;0.70;0.70;;;10.70;99.90;;;;;;5019158;28;20046;-79
2023/10/24 06:11:12;;;;;;;1.25;1.25;;;10.60;99.90;;;;;;5013391;28;20742;-80
2023/10/24 06:13:38;;;;;;;1.45;1.30;;;10.70;99.90;;;;;;5007132;28;20053;-79
2023/10/24 06:16:16;;;;;;;1.48;1.38;;;10.70;99.90;;;;;;5024547;28;20042;-79
2023/10/24 06:18:42;;;;;;;0.43;0.43;;;10.60;99.90;;;;;;5003618;28;20521;-79
2023/10/24 06:21:10;;;;;;;1.48;1.40;;;10.60;99.90;;;;;;5010510;28;20046;-79
2023/10/24 06:23:40;;;;;;;0.50;0.50;;;10.60;99.90;;;;;;4990112;28;20049;-79
2023/10/24 06:26:16;;;;;;;0.43;0.43;;;10.60;99.90;;;;;;5010993;28;20049;-79
2023/10/24 06:28:42;;;;;;;1.25;1.15;;;10.60;99.90;;;;;;5006098;28;20080;-79
2023/10/24 06:31:12;;;;;;;0.50;0.50;;;10.60;99.90;;;;;;4999853;28;20124;-79
2023/10/24 06:33:38;;;;;;;0.60;0.60;;;10.60;99.90;;;;;;5008116;28;20406;-80
2023/10/24 06:36:04;;;;;;;1.15;1.10;;;10.60;99.90;;;;;;5002266;28;20049;-79
2023/10/24 06:38:30;;;;;;;0.80;0.80;;;10.70;99.90;;;;;;5006186;28;20104;-79
2023/10/24 06:40:58;;;;;;;0.50;0.50;;;10.70;99.90;;;;;;5026320;28;20107;-79
2023/10/24 06:43:25;;;;;;;1.00;0.90;;;10.70;99.90;;;;;;4993014;28;20049;-79
2023/10/24 06:45:51;;;;;;;0.40;0.40;;;10.70;99.90;;;;;;5020380;28;20565;-79
2023/10/24 06:48:18;;;;;;;1.27;1.23;;;10.70;99.90;;;;;;5007310;28;20050;-79
2023/10/24 06:50:43;;;;;;;0.73;0.73;;;10.70;99.90;;;;;;4995537;28;20046;-80
2023/10/24 06:53:10;;;;;;;0.98;0.98;;;10.70;99.90;;;;;;4993337;28;20058;-79
2023/10/24 06:55:36;;;;;;;1.17;1.17;;;10.70;99.90;;;;;;5023606;28;20040;-80
2023/10/24 06:58:06;;;;;;;4.25;1.80;;;10.80;99.90;;;;;;5009005;28;20041;-81
2023/10/24 07:00:32;;;;;;;1.10;1.05;;;10.80;99.90;;;;;;5025409;28;20061;-79
2023/10/24 07:02:58;;;;;;;0.77;0.77;;;10.80;99.90;;;;;;4987754;28;20052;-79
2023/10/24 07:05:24;;;;;;;0.82;0.82;;;10.80;99.90;;;;;;4992572;28;20065;-79
2023/10/24 07:07:50;;;;;;;0.85;0.73;;;10.80;99.90;;;;;;5009208;28;20033;-80
2023/10/24 07:10:16;;;;;;;2.17;1.00;;;10.70;99.90;;;;;;5010087;28;20081;-80
2023/10/24 07:12:41;;;;;;;0.45;0.45;;;10.80;99.90;;;;;;5007196;28;20052;-79
2023/10/24 07:15:08;;;;;;;0.35;0.35;;;10.80;99.90;;;;;;5008432;28;20134;-79
2023/10/24 07:17:35;;;;;;;1.30;1.20;;;10.80;99.90;;;;;;5020748;28;20099;-79
2023/10/24 07:20:04;;;;;;;0.60;0.60;;;10.80;99.90;;;;;;5008461;28;20433;-79
2023/10/24 07:22:30;;;;;;;0.50;0.50;;;10.80;99.90;;;;;;5008748;28;20041;-78
2023/10/24 07:24:55;;;;;;;0.65;0.65;;;10.90;99.90;;;;;;5008933;28;20049;-78
2023/10/24 07:27:21;;;;;;;0.90;0.88;;;10.90;99.90;;;;;;5016172;28;20053;-80
2023/10/24 07:29:47;;;;;;;1.10;1.00;;;10.90;99.90;;;;;;5005630;28;20049;-79
2023/10/24 07:32:13;;;;;;;0.50;0.50;;;10.90;99.90;;;;;;4986491;28;20056;-78
2023/10/24 07:34:41;;;;;;;0.65;0.65;;;10.90;99.90;;;;;;4990887;28;20542;-79
2023/10/24 07:37:08;;;;;;;1.75;1.45;;;10.90;99.90;;;;;;4999329;28;20103;-78
2023/10/24 07:39:38;;;;;;;1.15;1.05;;;10.90;99.90;;;;;;5001064;28;20049;-78
2023/10/24 07:42:03;;;;;;;0.77;0.77;;;10.90;99.90;;;;;;5008697;28;20136;-79
2023/10/24 07:44:29;;;;;;;1.15;0.90;;;10.90;99.90;;;;;;4990285;28;20046;-79
2023/10/24 07:46:55;;;;;;;0.68;0.68;;;11.00;99.90;;;;;;5023133;28;20053;-79
2023/10/24 07:49:20;;;;;;;0.57;0.57;;;11.00;99.90;;;;;;5004178;28;20640;-78
2023/10/24 07:51:46;;;;;;;0.85;0.85;;;11.00;99.90;;;;;;5006576;28;20119;-79
2023/10/24 07:54:12;;;;;;;0.98;0.90;;;11.00;99.90;;;;;;5003648;28;20047;-79
2023/10/24 07:56:41;;;;;;;0.77;0.77;;;11.00;99.90;;;;;;4999233;28;20033;-78
2023/10/24 07:59:08;;;;;;;0.70;0.70;;;11.10;99.90;;;;;;4987979;28;20045;-78
2023/10/24 08:01:34;;;;;;;1.55;1.45;;;11.00;99.90;;;;;;4991878;28;20042;-78
2023/10/24 08:04:00;;;;;;;3.40;1.05;;;11.10;99.90;;;;;;4987358;28;20474;-79
2023/10/24 08:06:26;;;;;;;0.68;0.68;;;11.00;99.90;;;;;;4988784;28;20083;-79
2023/10/24 08:08:52;;;;;;;0.82;0.82;;;11.10;99.90;;;;;;5008059;28;20052;-79
2023/10/24 08:11:18;;;;;;;6.25;1.10;;;11.10;99.90;;;;;;5000874;28;20053;-79
2023/10/24 08:13:43;;;;;;;0.50;0.50;;;11.10;99.90;;;;;;4982595;28;20132;-79
2023/10/24 08:16:09;;;;;;;1.23;1.05;;;11.10;99.90;;;;;;4982434;28;20045;-79
2023/10/24 08:18:35;;;;;;;1.48;1.02;;;11.10;99.90;;;;;;5005405;28;20042;-78
2023/10/24 08:21:01;;;;;;;0.52;0.52;;;11.20;99.90;;;;;;5015908;28;20053;-79
2023/10/24 08:23:30;;;;;;;0.80;0.80;;;11.20;99.90;;;;;;5006267;28;20037;-78
2023/10/24 08:25:56;;;;;;;1.60;1.50;;;11.20;99.90;;;;;;4995802;28;20044;-78
2023/10/24 08:28:23;;;;;;;1.45;1.33;;;11.20;99.90;;;;;;5003572;28;20410;-79
2023/10/24 08:30:48;;;;;;;0.82;0.82;;;11.30;99.90;;;;;;4992342;28;20037;-79
2023/10/24 08:33:15;;;;;;;2.28;0.90;;;11.30;99.90;;;;;;5001180;28;20049;-79
2023/10/24 08:35:41;;;;;;;0.60;0.60;;;11.30;99.90;;;;;;4996028;28;20454;-78
2023/10/24 08:38:06;;;;;;;0.60;0.60;;;11.20;99.90;;;;;;5002691;28;20050;-78
2023/10/24 08:40:32;;;;;;;0.65;0.50;;;11.30;99.90;;;;;;5003885;28;20104;-78
2023/10/24 08:42:58;;;;;;;1.30;1.17;;;11.30;99.90;;;;;;4993050;28;20391;-78
2023/10/24 08:45:26;;;;;;;0.47;0.47;;;11.30;99.90;;;;;;5004064;28;20179;-79
2023/10/24 08:47:53;;;;;;;1.10;0.95;;;11.30;99.90;;;;;;5022856;28;20513;-78
2023/10/24 08:50:19;;;;;;;0.65;0.65;;;11.30;99.90;;;;;;5010439;28;20041;-79
2023/10/24 08:52:45;;;;;;;0.88;0.88;;;11.20;99.90;;;;;;5023565;28;20080;-78
2023/10/24 08:55:12;;;;;;;2.38;2.20;;;11.30;99.90;;;;;;4993138;28;20063;-79
2023/10/24 08:57:42;;;;;;;0.88;0.88;;;11.20;99.90;;;;;;4999482;28;20094;-78
2023/10/24 09:00:13;;;;;;;0.75;0.73;;;11.30;99.90;;;;;;5011412;28;20049;-78
2023/10/24 09:02:42;;;;;;;1.38;1.23;;;11.30;99.90;;;;;;5026629;28;20037;-78
2023/10/24 09:05:12;;;;;;;1.20;1.20;;;11.30;99.90;;;;;;5021251;28;20148;-78
2023/10/24 09:07:38;;;;;;;0.80;0.80;;;11.20;99.90;;;;;;5010980;28;20643;-78
2023/10/24 09:10:05;;;;;;;1.45;1.35;;;11.20;99.90;;;;;;5012750;28;20445;-79
2023/10/24 09:12:31;;;;;;;1.17;1.17;;;11.20;99.90;;;;;;4992344;28;20041;-78
2023/10/24 09:14:58;;;;;;;1.25;1.15;;;11.20;99.90;;;;;;4996777;28;20045;-78
2023/10/24 09:17:25;;;;;;;0.80;0.80;;;11.20;99.90;;;;;;5006314;28;20096;-78
2023/10/24 09:19:57;;;;;;;0.70;0.70;;;11.20;99.90;;;;;;5010498;28;20041;-78
2023/10/24 09:22:27;;;;;;;2.22;1.55;;;11.20;99.90;;;;;;5006224;28;20041;-78
2023/10/24 09:24:55;;;;;;;0.55;0.55;;;11.30;99.90;;;;;;4985576;28;20073;-78
2023/10/24 09:27:27;;;;;;;1.38;1.33;;;11.20;99.90;;;;;;4980754;28;20060;-78
2023/10/24 09:29:53;;;;;;;0.65;0.65;;;11.30;99.90;;;;;;5019730;28;20083;-78
2023/10/24 09:32:20;;;;;;;2.03;1.88;;;11.30;99.90;;;;;;5010177;28;20037;-78
2023/10/24 09:34:46;;;;;;;1.58;1.48;;;11.30;99.90;;;;;;5010864;28;20056;-79
2023/10/24 09:37:16;;;;;;;0.95;0.88;;;11.40;99.90;;;;;;4999184;28;20508;-78
2023/10/24 09:40:01;;;;;;;1.52;1.25;;;11.40;99.90;;;;;;5015320;28;20077;-79
2023/10/24 09:42:29;;;;;;;1.70;1.60;;;11.50;99.90;;;;;;4999991;28;20057;-78
2023/10/24 09:44:57;;;;;;;8.18;2.92;;;11.50;99.90;;;;;;5004157;28;20499;-78
2023/10/24 09:47:24;;;;;;;2.92;2.35;;;11.50;99.90;;;;;;5004064;28;20049;-78
2023/10/24 09:49:51;;;;;;;7.40;1.88;;;11.50;99.90;;;;;;5006395;28;20072;-78
2023/10/24 09:52:19;;;;;;;2.07;1.37;;;11.50;99.90;;;;;;4979456;28;20493;-79
2023/10/24 09:54:48;;;;;;;1.50;1.23;;;11.60;99.90;;;;;;4991299;28;20050;-78
2023/10/24 09:57:18;;;;;;;1.27;1.17;;;11.60;99.90;;;;;;4990359;28;20045;-78
2023/10/24 09:59:46;;;;;;;0.75;0.75;;;11.60;99.90;;;;;;5005246;28;20080;-77
2023/10/24 10:02:12;;;;;;;0.77;0.77;;;11.60;99.90;;;;;;4992369;28;20857;-78
2023/10/24 10:04:40;;;;;;;1.33;1.20;;;11.60;99.90;;;;;;4986754;28;20128;-78
2023/10/24 10:07:09;;;;;;;0.70;0.70;;;11.60;99.90;;;;;;5008819;28;20570;-78
2023/10/24 10:09:38;;;;;;;0.98;0.98;;;11.60;99.90;;;;;;4986067;28;20075;-78
2023/10/24 10:12:09;;;;;;;1.40;1.30;;;11.60;99.90;;;;;;5025110;28;20136;-76
2023/10/24 10:14:51;;;;;;;0.70;0.70;;;11.60;99.90;;;;;;5027187;28;20061;-78
2023/10/24 10:17:46;;;;;;;1.30;1.05;;;11.60;99.90;;;;;;5026494;28;20057;-77
2023/10/24 10:20:19;;;;;;;0.85;0.85;;;11.60;99.90;;;;;;5012680;28;20450;-77
2023/10/24 10:22:55;;;;;;;1.80;1.58;;;11.60;99.90;;;;;;5008027;28;20050;-77
2023/10/24 10:25:39;;;;;;;0.80;0.80;;;11.60;99.90;;;;;;5018185;28;20042;-77
2023/10/24 10:28:34;;;;;;;1.38;1.15;;;11.60;99.90;;;;;;5006860;28;20048;-77
2023/10/24 10:31:13;;;;;;;2.33;1.48;;;11.60;99.90;;;;;;5025907;28;20041;-76
2023/10/24 10:33:39;;;;;;;0.93;0.93;;;11.60;99.90;;;;;;5023285;28;20125;-77
2023/10/24 10:36:09;;;;;;;0.85;0.85;;;11.70;99.90;;;;;;5006615;28;20131;-77
2023/10/24 10:38:37;;;;;;;0.50;0.50;;;11.60;99.90;;;;;;5011067;28;20041;-77
2023/10/24 10:41:25;;;;;;;;;;;11.70;99.90;;;;;;5020307;28;20049;-77
2023/10/24 10:43:53;;;;;;;;;;;11.70;99.90;;;;;;5022047;28;20393;-77
2023/10/24 10:46:20;;;;;;;;;;;11.70;99.90;;;;;;5002399;28;19925;-77
2023/10/24 10:48:50;;;;;;;0.50;0.50;;;11.70;99.90;;;;;;5026048;28;19929;-77
2023/10/24 10:51:20;;;;;;;1.02;0.98;;;11.80;99.90;;;;;;5001347;28;20054;-77
2023/10/24 10:54:12;;;;;;;1.20;1.17;;;11.80;99.90;;;;;;5005933;28;20042;-77
2023/10/24 10:56:39;;;;;;;1.77;1.58;;;11.80;99.90;;;;;;5014596;28;20053;-77
2023/10/24 10:59:08;;;;;;;0.80;0.80;;;11.80;99.90;;;;;;5002391;28;20049;-77
2023/10/24 11:02:08;;;;;;;0.88;0.88;;;11.80;99.90;;;;;;5007777;28;20056;-77
2023/10/24 11:04:35;;;;;;;1.27;1.27;;;11.80;99.90;;;;;;5009195;28;20052;-77
2023/10/24 11:07:16;;;;;;;0.75;0.75;;;11.80;99.90;;;;;;4989712;28;20537;-77
2023/10/24 11:09:42;;;;;;;0.98;0.88;;;11.80;99.90;;;;;;5010407;28;20128;-78
2023/10/24 11:12:30;;;;;;;1.13;1.13;;;11.80;99.90;;;;;;4990082;28;20144;-77
2023/10/24 11:15:19;;;;;;;0.73;0.73;;;11.90;99.90;;;;;;5007570;28;20045;-77
2023/10/24 11:17:46;;;;;;;0.98;0.95;;;11.90;99.90;;;;;;5010719;28;20417;-77
2023/10/24 11:20:11;;;;;;;5.47;1.25;;;11.90;99.90;;;;;;5004994;28;20422;-77
2023/10/24 11:22:38;;;;;;;0.70;0.70;;;11.90;99.90;;;;;;5022076;28;20053;-77
2023/10/24 11:25:13;;;;;;;2.47;0.80;;;12.00;99.90;;;;;;5014505;28;20049;-77
2023/10/24 11:27:41;;;;;;;0.50;0.50;;;12.00;99.90;;;;;;5006593;28;20823;-77
2023/10/24 11:30:07;;;;;;;0.80;0.80;;;12.00;99.90;;;;;;5002936;28;20453;-78
2023/10/24 11:32:33;;;;;;;1.55;1.13;;;12.00;99.90;;;;;;5008076;28;20654;-77
2023/10/24 11:35:00;;;;;;;0.60;0.60;;;12.00;99.90;;;;;;5021334;28;20760;-78
2023/10/24 11:37:27;;;;;;;0.68;0.68;;;12.00;99.90;;;;;;5003513;28;20697;-77
2023/10/24 11:39:53;;;;;;;0.70;0.70;;;12.00;99.90;;;;;;5005061;28;20034;-77
2023/10/24 11:42:19;;;;;;;1.48;1.45;;;12.10;99.90;;;;;;5025143;28;20060;-77
2023/10/24 11:44:44;;;;;;;0.60;0.60;;;12.10;99.90;;;;;;5025430;28;20069;-76
2023/10/24 11:47:16;;;;;;;3.30;1.55;;;12.10;99.90;;;;;;5022845;28;20041;-77
2023/10/24 11:49:45;;;;;;;1.35;1.25;;;12.10;99.90;;;;;;5004127;28;20045;-77
2023/10/24 11:52:10;;;;;;;0.82;0.82;;;12.20;99.90;;;;;;5010026;28;20069;-76
2023/10/24 11:54:37;;;;;;;0.50;0.50;;;12.20;99.90;;;;;;5017772;28;20050;-77
2023/10/24 11:57:05;;;;;;;0.40;0.40;;;12.30;99.90;;;;;;5021395;28;20049;-76
2023/10/24 11:59:35;;;;;;;1.10;1.00;;;12.30;99.90;;;;;;5022689;28;20045;-77
2023/10/24 12:02:01;;;;;;;0.40;0.40;;;12.30;99.90;;;;;;5021653;28;20049;-77
2023/10/24 12:04:27;;;;;;;0.73;0.73;;;12.40;99.90;;;;;;5015300;28;20050;-77
2023/10/24 12:07:08;;;;;;;2.25;1.42;;;12.40;99.90;;;;;;5028594;28;20040;-77
2023/10/24 12:09:34;;;;;;;0.98;0.98;;;12.30;99.90;;;;;;5009297;28;20054;-77
2023/10/24 12:12:04;;;;;;;1.30;1.10;;;12.30;99.90;;;;;;5010549;28;20073;-77
2023/10/24 12:14:30;;;;;;;0.70;0.68;;;12.40;99.90;;;;;;5013028;28;20056;-77
2023/10/24 12:16:59;;;;;;;0.52;0.52;;;12.40;99.90;;;;;;5029123;28;20119;-77
2023/10/24 12:19:25;;;;;;;0.88;0.88;;;12.50;99.90;;;;;;5027996;28;20041;-77
2023/10/24 12:21:51;;;;;;;2.30;1.40;;;12.60;99.90;;;;;;5027847;28;20335;-77
2023/10/24 12:24:17;;;;;;;0.88;0.88;;;12.70;99.90;;;;;;4998899;28;20057;-77
2023/10/24 12:26:43;;;;;;;1.33;1.23;;;12.80;99.90;;;;;;5023855;28;20045;-77
2023/10/24 12:29:11;;;;;;;1.50;1.40;;;12.80;99.90;;;;;;5023385;28;20050;-77
2023/10/24 12:31:38;;;;;;;1.60;1.48;;;12.90;99.90;;;;;;5003607;28;20042;-77
2023/10/24 12:34:03;;;;;;;2.30;1.48;;;12.90;99.90;;;;;;5003988;28;20133;-77
2023/10/24 12:36:29;;;;;;;1.13;1.13;;;12.90;99.90;;;;;;5010412;28;20148;-77
2023/10/24 12:38:55;;;;;;;0.70;0.70;;;13.00;99.90;;;;;;5029365;28;20045;-77
2023/10/24 12:41:21;;;;;;;0.50;0.50;;;13.00;99.90;;;;;;5025045;28;20409;-77
2023/10/24 12:43:46;;;;;;;1.15;1.08;;;12.90;99.90;;;;;;5028169;28;20490;-77
2023/10/24 12:46:13;;;;;;;0.73;0.73;;;13.00;99.90;;;;;;5018824;28;20060;-77
2023/10/24 12:48:40;;;;;;;1.23;1.13;;;12.90;99.90;;;;;;5022587;28;20063;-77